Weather at Cannon Air Force Base

Public forecast

Using degrees Fahrenheit for public forecast. Weather courtesy of forecast.io.

Current aviation weather report (METAR) for Cannon Air Force Base

Retrieved 2021/09/21 13:58 UTC (33 minutes ago):

KCVS 211358Z 03018KT 10SM CLR 14/05 A3043 RMK AO2A SLP260 T01400048

Aviation forecast (TAF) for Cannon Air Force Base

Forecast is more than 12 hours old.

Retrieved 2021-09-21 02:03 UTC (12 hours ago):

TAF TAF KCVS 210200Z 2102/2208 03010KT 9999 SKC QNH3005INS BECMG 2105/2106 04012KT 9999 SKC QNH3013INS BECMG 2112/2113 04015G25KT 9999 SCT050 QNH3037INS BECMG 2113/2114 05020G30KT 9999 BKN040 QNH3045INS BECMG 2118/2119 05012G20KT 9999 SCT040 QNH3046INS BECMG 2120/2121 04012KT 9999 FEW040 QNH3044INS BECMG 2202/2203 VRB06KT 9999 SKC QNH3048INS TX22/2122Z TN11/2113Z